• Join FlightAware (Why Join?)
  • Login
  • US Flag 
06:40AM EDT


 

Airport Tracker/Info


-or-


 

Live Flight TrackerFlight Track Log ✈ SKW6492 ✈ 30-Apr-2013 ✈ KDEN - KCOD

Flight Track Log - Related Links

Times and Time Zones

All times are in EDT time to prevent confusion due to time zone crossing. See the SKW6492 flight status page for this flight to view local times or setup timezone preferences in your user account.

Time Position Orientation Groundspeed Altitude Reporting Facility
EDT Latitude Longitude Course Direction KTS MPH feet Rate Location/Type
09:52PM 39.9500 -104.6833 346° North 210 242 8,100  Level Denver TRACON
09:53PM 40.0167 -104.6667 11° North 264 304 9,900 1,260 Climbing Denver TRACON
09:54PM 40.1593 -104.7695 347° North  Level FlightAware Approximate
09:54PM 40.0661 -104.6606 North 287 330 10,100  Level Denver Center
09:55PM 40.2633 -104.8006 347° North  Level FlightAware Approximate
09:55PM 40.1592 -104.6839 349° North 337 388 12,500  Level Denver Center
09:56PM 40.3669 -104.8334 346° North  Level FlightAware Approximate
09:56PM 40.2497 -104.7081 348° North 330 380 14,700  Level Denver Center
09:57PM 40.4702 -104.8678 346° North  Level FlightAware Approximate
09:57PM 40.3647 -104.7386 349° North 341 392 16,900  Level Denver Center
09:58PM 40.4692 -104.7678 348° North 359 413 17,800 900 Climbing Denver Center
09:59PM 40.5725 -104.7947 349° North 374 430 19,000 1,200 Climbing Denver Center
10:00PM 40.6994 -104.8286 349° North 376 433 20,500 1,140 Climbing Denver Center
10:01PM 40.8006 -104.8617 346° North 375 432 21,400 1,020 Climbing Denver Center
10:02PM 40.9022 -104.9064 342° North 383 441 22,600 780 Climbing Denver Center
10:03PM 41.0053 -104.9578 339° North 390 449 23,100 480 Climbing Denver Center
10:04PM 41.1289 -105.0192 339° North 415 478 23,600 420 Climbing Denver Center
10:06PM 41.2375 -105.0717 340° North 431 496 24,100 480 Climbing Denver Center
10:07PM 41.3842 -105.1444 340° North 439 505 24,800 480 Climbing Denver Center
10:08PM 41.4950 -105.1969 340° North 442 509 25,200 480 Climbing Denver Center
10:09PM 41.6131 -105.2900 329° Northwest 434 499 25,800 780 Climbing Denver Center
10:10PM 41.7025 -105.3842 322° Northwest 427 491 26,900 900 Climbing Denver Center
10:12PM 41.8919 -105.5894 321° Northwest 421 484 28,600 960 Climbing Denver Center
10:13PM 41.9772 -105.6806 322° Northwest 410 472 30,000 1,020 Climbing Denver Center
10:14PM 42.0714 -105.7844 321° Northwest 395 455 30,800 600 Climbing Denver Center
10:15PM 42.1497 -105.8728 320° Northwest 386 444 31,300 480 Climbing Denver Center
10:16PM 42.2314 -105.9625 321° Northwest 391 450 31,800 180 Climbing Denver Center
10:18PM 42.3956 -106.1447 321° Northwest 397 457 32,000 60 Climbing Denver Center
10:19PM 42.4933 -106.2542 320° Northwest 407 468 32,000  Level Denver Center
10:20PM 42.5783 -106.3500 320° Northwest 414 476 32,000  Level Denver Center
10:21PM 42.6786 -106.4617 321° Northwest 415 478 32,000  Level Denver Center
10:22PM 42.7506 -106.5439 320° Northwest 422 486 32,000  Level Denver Center
10:23PM 42.8667 -106.6756 320° Northwest 424 488 32,000  Level Denver Center
10:24PM 42.9536 -106.7756 320° Northwest 426 490 32,000  Level Denver Center
10:25PM 43.0556 -106.8917 320° Northwest 426 490 32,000  Level Denver Center
10:26PM 43.1425 -106.9911 320° Northwest 427 491 32,000  Level Denver Center
10:27PM 43.2369 -107.1008 320° Northwest 428 493 32,000  Level Denver Center
10:28PM 43.3533 -107.2381 319° Northwest 433 498 32,000  Level Salt Lake Center
10:29PM 43.4403 -107.3389 320° Northwest 427 491 32,000  Level Salt Lake Center
10:30PM 43.5278 -107.4389 320° Northwest 426 490 32,000 -180 Level Salt Lake Center
10:31PM 43.6275 -107.5575 319° Northwest 424 488 31,700 -1,140 Descending Salt Lake Center
10:32PM 43.7164 -107.6625 320° Northwest 437 503 29,700 -2,160 Descending Salt Lake Center
10:33PM 43.8078 -107.7717 319° Northwest 451 519 27,300 -2,580 Descending Salt Lake Center
10:34PM 43.9067 -107.8917 319° Northwest 424 488 24,500 -2,580 Descending Salt Lake Center
10:35PM 43.9906 -107.9931 319° Northwest 418 481 22,100 -2,580 Descending Salt Lake Center
10:37PM 44.0833 -108.1217 315° West 420 483 19,300 -2,400 Descending Salt Lake Center
10:38PM 44.1650 -108.2125 321° Northwest 409 471 17,200 -2,100 Descending Salt Lake Center
10:39PM 44.2403 -108.2942 322° Northwest 384 442 15,100 -2,220 Descending Salt Lake Center
10:40PM 44.3256 -108.3883 322° Northwest 361 415 12,700 -2,220 Descending Salt Lake Center
10:41PM 44.4025 -108.4761 321° Northwest 362 417 10,600 -1,620 Descending Salt Lake Center
10:42PM 44.4858 -108.5683 322° Northwest 352 405 9,400 -600 Descending Salt Lake Center
10:43PM 44.5397 -108.6281 322° Northwest 290 334 9,400 -180 Level Salt Lake Center
10:44PM 44.5936 -108.6897 321° Northwest 267 307 9,100 -660 Descending Salt Lake Center
10:45PM 44.6517 -108.7578 320° Northwest 252 290 8,100 -780 Descending Salt Lake Center
10:46PM 44.6364 -108.8208 251° West 198 228 7,600 -300 Descending Salt Lake Center
10:47PM 44.6089 -108.8700 232° Southwest 176 203 7,600  Level Salt Lake Center